Time;durP1;ratioP1;P1;durP2;ratioP2;P2;SDS_P1;SDS_P2;PMS_P1;PMS_P2;Temp;Humidity;BMP_temperature;BMP_pressure;BME280_temperature;BME280_humidity;BME280_pressure;Samples;Min_cycle;Max_cycle;Signal;HPM_P1;HPM_P2
2023/05/02 00:02:12;;;;;;;3.88;3.60;;;;;;;8.46;100.00;95840.56;5050057;28;20021;-71
2023/05/02 00:04:38;;;;;;;3.85;3.38;;;;;;;8.33;100.00;95837.25;5049168;28;20025;-71
2023/05/02 00:07:04;;;;;;;7.43;4.32;;;;;;;8.26;100.00;95843.97;5047806;28;20680;-71
2023/05/02 00:09:29;;;;;;;5.45;4.68;;;;;;;8.18;100.00;95841.97;5053170;28;20507;-71
2023/05/02 00:11:55;;;;;;;5.85;5.43;;;;;;;8.13;100.00;95833.63;5053232;28;20013;-71
2023/05/02 00:14:20;;;;;;;5.47;5.07;;;;;;;8.10;100.00;95837.31;5043774;28;20021;-70
2023/05/02 00:16:46;;;;;;;13.45;9.70;;;;;;;8.14;100.00;95832.69;5048498;28;20025;-71
2023/05/02 00:19:11;;;;;;;8.40;7.70;;;;;;;8.15;100.00;95832.53;5048007;28;20020;-71
2023/05/02 00:21:36;;;;;;;6.55;5.05;;;;;;;8.14;100.00;95830.06;5051939;28;20163;-71
2023/05/02 00:24:02;;;;;;;8.77;7.88;;;;;;;8.12;100.00;95831.97;5048433;28;20019;-71
2023/05/02 00:26:27;;;;;;;4.72;4.35;;;;;;;8.08;100.00;95825.31;5049429;28;20037;-70
2023/05/02 00:28:53;;;;;;;6.85;6.28;;;;;;;8.05;100.00;95826.38;5049354;28;20017;-71
2023/05/02 00:31:18;;;;;;;7.40;6.82;;;;;;;8.08;100.00;95822.69;5065218;28;20650;-71
2023/05/02 00:33:44;;;;;;;7.47;6.93;;;;;;;8.14;100.00;95823.00;5046536;28;20024;-71
2023/05/02 00:36:17;;;;;;;8.32;6.38;;;;;;;8.18;100.00;95820.97;5045161;28;20060;-71
2023/05/02 00:38:43;;;;;;;5.88;5.38;;;;;;;8.22;100.00;95822.38;5049160;28;20048;-71
2023/05/02 00:41:08;;;;;;;5.43;4.93;;;;;;;8.22;100.00;95822.38;5052585;28;20481;-71
2023/05/02 00:43:35;;;;;;;7.90;5.35;;;;;;;8.24;100.00;95823.09;5051629;28;20025;-71
2023/05/02 00:46:01;;;;;;;5.85;5.35;;;;;;;8.24;100.00;95817.03;5050044;28;20025;-71
2023/05/02 00:48:26;;;;;;;6.35;5.93;;;;;;;8.26;100.00;95818.56;5051065;28;20508;-71
2023/05/02 00:50:52;;;;;;;6.80;6.13;;;;;;;8.28;100.00;95814.00;5044760;28;20017;-71
2023/05/02 00:53:17;;;;;;;5.68;5.28;;;;;;;8.28;100.00;95818.44;5048503;28;20502;-71
2023/05/02 00:55:43;;;;;;;5.22;4.90;;;;;;;8.29;100.00;95813.09;5049573;28;20629;-71
2023/05/02 00:58:13;;;;;;;5.00;4.60;;;;;;;8.27;100.00;95819.41;5050865;28;20021;-71
2023/05/02 01:01:03;;;;;;;5.95;5.40;;;;;;;8.28;100.00;95813.19;5048989;28;20151;-71
2023/05/02 01:03:37;;;;;;;4.88;4.53;;;;;;;8.30;100.00;95820.00;5050676;28;20036;-71
2023/05/02 01:06:32;;;;;;;4.70;4.40;;;;;;;8.34;100.00;95811.88;5046992;28;20416;-71
2023/05/02 01:09:34;;;;;;;5.05;4.05;;;;;;;8.27;100.00;95806.28;5044107;28;20040;-70
2023/05/02 01:12:03;;;;;;;6.20;4.03;;;;;;;8.32;100.00;95810.22;5047006;28;20021;-71
2023/05/02 01:14:32;;;;;;;4.45;4.13;;;;;;;8.30;100.00;95806.03;5048618;28;20025;-71
2023/05/02 01:17:03;;;;;;;4.25;4.05;;;;;;;8.29;100.00;95810.47;5051586;28;20568;-71
2023/05/02 01:19:33;;;;;;;4.05;3.75;;;;;;;8.25;100.00;95811.63;5044092;28;20053;-71
2023/05/02 01:22:02;;;;;;;3.95;3.67;;;;;;;8.24;100.00;95809.16;5047294;28;20068;-71
2023/05/02 01:24:52;;;;;;;3.65;3.45;;;;;;;8.23;100.00;95808.31;5045049;28;20036;-71
2023/05/02 01:27:35;;;;;;;4.18;3.88;;;;;;;8.23;100.00;95810.94;5032394;28;20029;-71
2023/05/02 01:30:03;;;;;;;4.25;3.85;;;;;;;8.20;100.00;95807.75;5048244;28;20021;-71
2023/05/02 01:32:32;;;;;;;7.05;4.78;;;;;;;8.20;100.00;95813.00;5044338;28;20100;-72
2023/05/02 01:35:00;;;;;;;5.95;5.45;;;;;;;8.21;100.00;95815.47;5050659;28;20029;-72
2023/05/02 01:37:27;;;;;;;5.00;4.70;;;;;;;8.21;100.00;95818.09;5050167;28;20035;-71
2023/05/02 01:39:55;;;;;;;4.95;4.55;;;;;;;8.20;100.00;95813.81;5046476;28;20128;-71
2023/05/02 01:42:22;;;;;;;4.60;4.20;;;;;;;8.19;100.00;95813.94;5049612;28;20025;-71
2023/05/02 01:44:49;;;;;;;4.20;3.90;;;;;;;8.14;100.00;95820.38;5051717;28;20017;-70
2023/05/02 01:47:16;;;;;;;4.88;4.32;;;;;;;8.15;100.00;95819.41;5052750;28;20092;-71
2023/05/02 01:49:43;;;;;;;4.55;4.25;;;;;;;8.20;100.00;95821.69;5055288;28;20017;-70
2023/05/02 01:52:11;;;;;;;4.63;4.32;;;;;;;8.20;100.00;95811.19;5052775;28;20111;-70
2023/05/02 01:54:39;;;;;;;4.32;3.85;;;;;;;8.20;100.00;95813.00;5045733;28;20048;-71
2023/05/02 01:57:07;;;;;;;4.30;4.00;;;;;;;8.22;100.00;95816.31;5052700;28;20100;-70
2023/05/02 01:59:34;;;;;;;4.07;3.83;;;;;;;8.26;100.00;95817.72;5053623;28;20073;-71
2023/05/02 02:02:01;;;;;;;6.05;4.13;;;;;;;8.27;100.00;95814.97;5051768;28;20455;-71
2023/05/02 02:04:28;;;;;;;4.28;3.88;;;;;;;8.29;100.00;95813.09;5053924;28;20393;-71
2023/05/02 02:07:07;;;;;;;5.22;4.05;;;;;;;8.25;100.00;95818.69;5050605;28;20021;-70
2023/05/02 02:09:33;;;;;;;4.20;3.88;;;;;;;8.24;100.00;95817.84;5055122;28;20070;-71
2023/05/02 02:12:05;;;;;;;4.20;3.90;;;;;;;8.24;100.00;95817.84;5053060;28;20024;-71
2023/05/02 02:14:35;;;;;;;4.07;3.88;;;;;;;8.27;100.00;95820.22;5051178;28;20395;-70
2023/05/02 02:17:11;;;;;;;4.90;4.50;;;;;;;8.31;100.00;95819.03;5052863;28;20033;-70
2023/05/02 02:19:38;;;;;;;4.38;4.10;;;;;;;8.29;100.00;95810.47;5048997;28;20029;-70
2023/05/02 02:22:06;;;;;;;4.25;3.95;;;;;;;8.32;100.00;95819.84;5068097;28;20035;-70
2023/05/02 02:24:35;;;;;;;4.88;4.47;;;;;;;8.28;100.00;95813.19;5052522;28;20021;-71
2023/05/02 02:27:01;;;;;;;4.70;4.28;;;;;;;8.24;100.00;95819.66;5050468;28;20904;-70
2023/05/02 02:29:27;;;;;;;6.47;4.60;;;;;;;8.22;100.00;95816.31;5050567;28;20096;-70
2023/05/02 02:31:52;;;;;;;4.45;4.15;;;;;;;8.20;100.00;95821.69;5047289;28;20021;-70
2023/05/02 02:34:19;;;;;;;5.18;4.75;;;;;;;8.20;100.00;95821.69;5049217;28;20027;-71
2023/05/02 02:37:06;;;;;;;6.25;5.32;;;;;;;8.23;100.00;95825.84;5052209;28;20017;-70
2023/05/02 02:39:38;;;;;;;4.68;4.35;;;;;;;8.23;100.00;95818.81;5047289;28;20048;-70
2023/05/02 02:42:06;;;;;;;6.35;4.47;;;;;;;8.24;100.00;95820.47;5050045;28;20129;-70
2023/05/02 02:44:43;;;;;;;9.13;4.80;;;;;;;8.27;100.00;95814.16;5052518;28;20385;-70
2023/05/02 02:47:16;;;;;;;4.57;4.20;;;;;;;8.30;100.00;95814.75;5051606;28;20021;-70
2023/05/02 02:49:48;;;;;;;4.95;4.55;;;;;;;8.34;100.00;95806.63;5048121;28;20482;-70
2023/05/02 02:52:24;;;;;;;7.53;4.72;;;;;;;8.34;100.00;95810.06;5054822;28;20183;-70
2023/05/02 02:54:59;;;;;;;4.82;4.53;;;;;;;8.34;100.00;95807.44;5055029;28;20040;-70
2023/05/02 02:57:47;;;;;;;6.85;5.00;;;;;;;8.35;100.00;95811.72;5048320;28;20031;-71
2023/05/02 03:00:17;;;;;;;4.93;4.60;;;;;;;8.35;100.00;95808.28;5054253;28;20032;-70
2023/05/02 03:02:46;;;;;;;4.90;4.60;;;;;;;8.32;100.00;95799.72;5049728;28;20017;-71
2023/05/02 03:05:12;;;;;;;5.80;5.30;;;;;;;8.28;100.00;95806.16;5053901;28;20020;-70
2023/05/02 03:07:38;;;;;;;5.85;4.93;;;;;;;8.23;100.00;95813.56;5051784;28;20461;-71
2023/05/02 03:10:04;;;;;;;5.60;5.03;;;;;;;8.19;100.00;95814.78;5055787;28;20070;-70
2023/05/02 03:12:30;;;;;;;5.05;4.65;;;;;;;8.18;100.00;95813.09;5051681;28;20493;-71
2023/05/02 03:15:13;;;;;;;8.13;4.78;;;;;;;8.14;100.00;95804.66;5049585;28;20380;-70
2023/05/02 03:17:39;;;;;;;6.68;5.03;;;;;;;8.13;100.00;95805.59;5052056;28;20017;-70
2023/05/02 03:20:05;;;;;;;6.28;4.95;;;;;;;8.18;100.00;95805.25;5048137;28;20108;-71
2023/05/02 03:22:30;;;;;;;5.38;4.82;;;;;;;8.24;100.00;95804.72;5055828;28;20023;-70
2023/05/02 03:24:55;;;;;;;5.65;5.10;;;;;;;8.21;100.00;95804.97;5052435;28;20025;-70
2023/05/02 03:27:21;;;;;;;5.47;4.82;;;;;;;8.17;100.00;95809.63;5052641;28;20021;-71
2023/05/02 03:29:47;;;;;;;5.57;5.00;;;;;;;8.14;100.00;95815.13;5050570;28;20013;-71
2023/05/02 03:32:13;;;;;;;6.38;4.80;;;;;;;8.14;100.00;95812.50;5054376;28;20021;-71
2023/05/02 03:34:38;;;;;;;7.55;5.22;;;;;;;8.14;100.00;95817.75;5049887;28;20017;-71
2023/05/02 03:37:04;;;;;;;5.35;5.00;;;;;;;8.15;100.00;95811.56;5048796;28;20025;-71
2023/05/02 03:39:29;;;;;;;5.68;5.15;;;;;;;8.13;100.00;95804.78;5050988;28;20416;-71
2023/05/02 03:41:54;;;;;;;6.95;6.35;;;;;;;8.15;100.00;95815.97;5051994;28;20025;-71
2023/05/02 03:44:20;;;;;;;7.13;6.45;;;;;;;8.13;100.00;95817.91;5046505;28;20024;-70
2023/05/02 03:46:46;;;;;;;7.80;7.20;;;;;;;8.10;100.00;95813.72;5053177;28;20049;-71
2023/05/02 03:49:12;;;;;;;8.55;6.90;;;;;;;8.08;100.00;95820.06;5055393;28;20028;-71
2023/05/02 03:51:37;;;;;;;6.20;5.70;;;;;;;8.09;100.00;95821.72;5053089;28;20047;-71
2023/05/02 03:54:03;;;;;;;7.30;6.15;;;;;;;8.09;100.00;95821.72;5051524;28;20542;-71
2023/05/02 03:56:28;;;;;;;6.10;5.57;;;;;;;8.09;100.00;95824.34;5059445;28;20033;-70
2023/05/02 03:58:54;;;;;;;7.78;5.63;;;;;;;8.09;100.00;95821.72;5052713;28;20071;-71
2023/05/02 04:01:19;;;;;;;6.00;5.30;;;;;;;8.06;100.00;95821.94;5049224;28;20028;-71
2023/05/02 04:03:44;;;;;;;6.40;5.80;;;;;;;8.21;100.00;95823.34;5047428;28;20025;-71
2023/05/02 04:06:11;;;;;;;14.75;13.40;;;;;;;8.24;100.00;95822.28;5051538;28;20032;-71
2023/05/02 04:08:37;;;;;;;6.60;6.10;;;;;;;8.19;100.00;95832.31;5047990;28;20020;-71
2023/05/02 04:11:03;;;;;;;6.18;5.63;;;;;;;8.32;100.00;95827.72;5050026;28;20025;-71
2023/05/02 04:13:28;;;;;;;5.63;5.18;;;;;;;8.10;100.00;95828.63;5052332;28;20029;-71
2023/05/02 04:15:54;;;;;;;5.90;5.15;;;;;;;8.07;100.00;95834.09;5050296;28;20024;-71
2023/05/02 04:18:19;;;;;;;6.97;5.05;;;;;;;8.09;100.00;95832.22;5051978;28;20040;-71
2023/05/02 04:20:45;;;;;;;10.45;5.47;;;;;;;8.24;100.00;95836.22;5051230;28;20099;-71
2023/05/02 04:23:10;;;;;;;6.35;5.78;;;;;;;8.27;100.00;95838.56;5053868;28;20025;-71
2023/05/02 04:25:35;;;;;;;7.05;6.45;;;;;;;8.23;100.00;95839.78;5052194;28;20021;-70
2023/05/02 04:28:01;;;;;;;6.95;6.35;;;;;;;8.23;100.00;95837.16;5047876;28;20027;-72
2023/05/02 04:30:26;;;;;;;6.00;5.38;;;;;;;8.27;100.00;95843.81;5053820;28;20031;-72
2023/05/02 04:32:52;;;;;;;5.47;5.07;;;;;;;8.43;100.00;95839.97;5050302;28;20044;-72
2023/05/02 04:35:17;;;;;;;7.53;5.60;;;;;;;8.32;100.00;95852.19;5052402;28;20120;-72
2023/05/02 04:37:43;;;;;;;6.72;5.65;;;;;;;8.27;100.00;95859.56;5057986;28;20029;-72
2023/05/02 04:40:09;;;;;;;6.65;6.05;;;;;;;8.28;100.00;95866.47;5054280;28;20469;-72
2023/05/02 04:42:34;;;;;;;7.18;6.47;;;;;;;8.26;100.00;95865.78;5050592;28;20458;-73
2023/05/02 04:45:00;;;;;;;8.75;6.63;;;;;;;8.30;100.00;95867.22;5051387;28;20132;-69
2023/05/02 04:47:25;;;;;;;6.35;5.88;;;;;;;8.36;100.00;95870.28;5049942;28;20185;-72
2023/05/02 04:49:51;;;;;;;6.85;5.68;;;;;;;8.37;100.00;95867.53;5060704;28;20074;-72
2023/05/02 04:52:17;;;;;;;6.75;5.22;;;;;;;8.42;100.00;95877.66;5051778;28;20022;-71
2023/05/02 04:54:42;;;;;;;6.35;5.43;;;;;;;8.39;100.00;95872.66;5052713;28;20021;-70
2023/05/02 04:57:09;;;;;;;6.35;5.72;;;;;;;8.46;100.00;95876.44;5047336;28;20029;-71
2023/05/02 04:59:35;;;;;;;5.40;5.00;;;;;;;8.43;100.00;95887.19;5049320;28;20032;-71
2023/05/02 05:02:00;;;;;;;6.18;5.68;;;;;;;8.46;100.00;95892.19;5052418;28;20100;-72
2023/05/02 05:04:26;;;;;;;5.82;5.32;;;;;;;8.44;100.00;95899.34;5053028;28;20017;-71
2023/05/02 05:06:51;;;;;;;6.13;5.63;;;;;;;8.52;100.00;95907.50;5052927;28;20556;-72
2023/05/02 05:09:16;;;;;;;6.57;6.07;;;;;;;8.51;100.00;95894.47;5052677;28;20037;-72
2023/05/02 05:11:42;;;;;;;6.55;6.05;;;;;;;8.50;100.00;95903.31;5052463;28;20024;-71
2023/05/02 05:14:08;;;;;;;7.13;6.50;;;;;;;8.50;100.00;95905.94;5052102;28;20517;-72
2023/05/02 05:16:34;;;;;;;5.85;5.35;;;;;;;8.51;100.00;95900.56;5049315;28;20359;-72
2023/05/02 05:18:59;;;;;;;6.25;5.50;;;;;;;8.55;100.00;95906.38;5049122;28;20029;-72
2023/05/02 05:21:26;;;;;;;5.72;5.30;;;;;;;8.55;100.00;95906.38;5047611;28;20055;-72
2023/05/02 05:23:52;;;;;;;5.70;5.28;;;;;;;8.61;100.00;95916.38;5048793;28;20539;-72
2023/05/02 05:26:17;;;;;;;5.32;5.03;;;;;;;8.58;100.00;95925.34;5047726;28;20513;-72
2023/05/02 05:28:43;;;;;;;5.20;4.80;;;;;;;8.63;100.00;95922.38;5048759;28;20282;-72
2023/05/02 05:31:10;;;;;;;7.03;6.43;;;;;;;8.64;100.00;95915.31;5048086;28;20028;-73
2023/05/02 05:33:39;;;;;;;9.95;9.02;;;;;;;8.66;100.00;95937.03;5050461;28;20025;-72
2023/05/02 05:36:10;;;;;;;8.68;7.90;;;;;;;8.64;100.00;95929.28;5052023;28;20496;-73
2023/05/02 05:38:36;;;;;;;6.28;5.78;;;;;;;8.64;100.00;95931.06;5048163;28;20079;-72
2023/05/02 05:41:02;;;;;;;5.90;5.50;;;;;;;8.68;100.00;95932.47;5055108;28;20020;-73
2023/05/02 05:43:28;;;;;;;5.47;4.72;;;;;;;8.73;100.00;95935.56;5049187;28;20017;-72
2023/05/02 05:45:54;;;;;;;5.22;4.72;;;;;;;8.73;100.00;95930.31;5051059;28;20401;-71
2023/05/02 05:48:20;;;;;;;5.47;5.07;;;;;;;8.70;100.00;95936.66;5049211;28;20037;-73
2023/05/02 05:50:45;;;;;;;5.85;5.40;;;;;;;8.67;100.00;95936.91;5053973;28;20024;-70
2023/05/02 05:53:12;;;;;;;6.00;5.60;;;;;;;8.64;100.00;95941.56;5048574;28;20085;-72
2023/05/02 05:55:38;;;;;;;5.55;5.15;;;;;;;8.64;100.00;95947.66;5050301;28;20412;-72
2023/05/02 05:58:04;;;;;;;5.75;5.25;;;;;;;8.73;100.00;95940.81;5050294;28;20025;-73
2023/05/02 06:00:33;;;;;;;6.38;5.88;;;;;;;8.75;100.00;95936.28;5051017;28;20017;-74
2023/05/02 06:02:58;;;;;;;5.50;4.95;;;;;;;8.76;100.00;95930.09;5052637;28;20037;-72
2023/05/02 06:05:23;;;;;;;4.88;4.57;;;;;;;8.81;100.00;95934.94;5047110;28;20458;-71
2023/05/02 06:07:49;;;;;;;4.90;4.60;;;;;;;8.88;100.00;95928.25;5049853;28;20052;-70
2023/05/02 06:10:14;;;;;;;5.72;5.32;;;;;;;9.00;100.00;95931.66;5050941;28;20104;-73
2023/05/02 06:12:40;;;;;;;6.68;6.18;;;;;;;9.01;100.00;95930.69;5048703;28;20029;-70
2023/05/02 06:15:06;;;;;;;6.07;4.82;;;;;;;9.04;100.00;95930.44;5047784;28;20029;-69
2023/05/02 06:17:31;;;;;;;4.93;4.57;;;;;;;9.10;100.00;95922.03;5049758;28;20032;-68
2023/05/02 06:19:57;;;;;;;5.25;4.82;;;;;;;9.24;100.00;95933.22;5050553;28;20060;-69
2023/05/02 06:22:22;;;;;;;6.47;6.00;;;;;;;9.40;100.00;95925.72;5050771;28;20040;-68
2023/05/02 06:24:47;;;;;;;8.18;6.50;;;;;;;9.62;100.00;95930.94;5049923;28;20036;-68
2023/05/02 06:27:13;;;;;;;7.00;6.28;;;;;;;9.68;100.00;95930.41;5041301;28;20116;-68
2023/05/02 06:29:38;;;;;;;9.20;7.93;;;;;;;9.67;100.00;95926.13;5049346;28;20064;-68
2023/05/02 06:32:05;;;;;;;7.40;6.82;;;;;;;9.75;100.00;95931.59;5050115;28;20047;-69
2023/05/02 06:34:33;;;;;;;8.98;8.18;;;;;;;9.82;100.00;95926.59;5051595;28;20093;-69
2023/05/02 06:36:58;;;;;;;5.63;5.20;;;;;;;9.82;100.00;95937.97;5055140;28;20582;-68
2023/05/02 06:39:24;;;;;;;11.82;7.43;;;;;;;9.83;100.00;95928.28;5054505;28;20068;-68
2023/05/02 06:41:49;;;;;;;11.18;9.15;;;;;;;9.85;100.00;95940.34;5054652;28;20489;-68
2023/05/02 06:44:15;;;;;;;13.50;10.98;;;;;;;9.88;100.00;95934.81;5051510;28;20692;-69
2023/05/02 06:46:41;;;;;;;6.43;5.82;;;;;;;9.96;100.00;95934.16;5053149;28;20021;-69
2023/05/02 06:49:06;;;;;;;13.02;10.77;;;;;;;10.01;100.00;95929.31;5054261;28;20071;-68
2023/05/02 06:51:32;;;;;;;10.18;9.27;;;;;;;10.04;100.00;95934.31;5053629;28;20047;-68
2023/05/02 06:53:57;;;;;;;4.88;4.47;;;;;;;10.20;98.24;95938.25;5052277;28;20402;-69
2023/05/02 06:56:27;;;;;;;4.53;4.22;;;;;;;10.16;97.29;95932.41;5053827;28;20497;-68
2023/05/02 06:58:52;;;;;;;7.05;6.40;;;;;;;10.21;98.11;95936.47;5052655;28;20044;-68
2023/05/02 07:01:18;;;;;;;7.32;6.60;;;;;;;10.47;97.49;95931.56;5053561;28;20033;-68
2023/05/02 07:03:44;;;;;;;6.75;5.90;;;;;;;10.62;96.48;95933.81;5052993;28;20517;-68
2023/05/02 07:06:10;;;;;;;6.72;6.10;;;;;;;10.73;94.38;95938.97;5054867;28;20571;-68
2023/05/02 07:08:35;;;;;;;7.20;6.28;;;;;;;11.50;91.62;95939.09;5053839;28;20033;-68
2023/05/02 07:11:01;;;;;;;5.70;4.72;;;;;;;11.57;90.06;95940.19;5055463;28;20033;-69
2023/05/02 07:13:27;;;;;;;5.75;5.20;;;;;;;11.21;91.36;95947.03;5053831;28;20032;-69
2023/05/02 07:15:52;;;;;;;8.18;5.25;;;;;;;10.92;92.79;95939.94;5051056;28;20044;-69
2023/05/02 07:18:18;;;;;;;5.22;4.72;;;;;;;10.69;92.20;95935.78;5053950;28;20029;-69
2023/05/02 07:20:43;;;;;;;5.53;4.78;;;;;;;10.55;92.62;95939.63;5052335;28;20057;-69
2023/05/02 07:23:09;;;;;;;6.53;5.15;;;;;;;10.58;94.31;95941.16;5053316;28;20022;-69
2023/05/02 07:25:35;;;;;;;4.20;3.90;;;;;;;10.61;94.85;95946.16;5055210;28;20041;-68
2023/05/02 07:28:01;;;;;;;7.95;7.10;;;;;;;10.63;95.71;95938.97;5051590;28;20036;-68
2023/05/02 07:30:26;;;;;;;7.60;6.50;;;;;;;10.67;94.10;95934.22;5052001;28;20052;-68
2023/05/02 07:32:51;;;;;;;6.45;5.80;;;;;;;10.63;94.03;95930.22;5054707;28;20382;-68
2023/05/02 07:35:17;;;;;;;7.65;6.95;;;;;;;10.59;94.33;95927.84;5051116;28;20067;-68
2023/05/02 07:37:42;;;;;;;11.70;8.48;;;;;;;10.64;95.07;95931.88;5052488;28;20108;-68
2023/05/02 07:40:08;;;;;;;9.93;9.02;;;;;;;10.79;94.89;95935.78;5054903;28;20541;-68
2023/05/02 07:42:35;;;;;;;8.95;7.50;;;;;;;11.89;90.92;95930.25;5047545;28;20040;-68
2023/05/02 07:45:00;;;;;;;6.20;4.22;;;;;;;12.53;85.14;95925.09;5052428;28;20033;-69
2023/05/02 07:47:26;;;;;;;7.45;6.65;;;;;;;12.46;85.82;95918.72;5051323;28;20025;-68
2023/05/02 07:49:53;;;;;;;6.60;6.03;;;;;;;12.66;85.50;95916.81;5052043;28;20033;-68
2023/05/02 07:52:19;;;;;;;5.47;5.05;;;;;;;12.47;82.99;95925.69;5054269;28;20096;-68
2023/05/02 07:54:47;;;;;;;5.07;4.68;;;;;;;12.15;84.93;95916.41;5051406;28;20508;-68
2023/05/02 07:57:12;;;;;;;5.57;5.07;;;;;;;12.20;85.43;95919.44;5051411;28;20108;-68
2023/05/02 07:59:38;;;;;;;5.53;4.43;;;;;;;12.06;87.51;95917.31;5052486;28;20112;-68
2023/05/02 08:02:03;;;;;;;6.55;5.95;;;;;;;11.82;87.06;95916.78;5048559;28;20033;-68
2023/05/02 08:04:29;;;;;;;7.00;4.65;;;;;;;12.36;84.02;95917.97;5044505;28;20028;-68
2023/05/02 08:06:55;;;;;;;9.32;5.07;;;;;;;12.76;83.41;95919.41;5051267;28;20086;-69
2023/05/02 08:09:20;;;;;;;8.00;4.40;;;;;;;12.57;81.42;95920.34;5053506;28;20028;-68
2023/05/02 08:11:46;;;;;;;4.40;4.10;;;;;;;13.17;81.39;95906.56;5053310;28;20428;-68
2023/05/02 08:14:11;;;;;;;4.07;3.78;;;;;;;14.00;77.88;95907.09;5048461;28;20036;-68
2023/05/02 08:16:37;;;;;;;4.80;4.40;;;;;;;14.46;72.52;95912.09;5051601;28;20024;-68
2023/05/02 08:19:02;;;;;;;5.22;4.10;;;;;;;14.63;73.56;95901.53;5050323;28;20111;-68
2023/05/02 08:21:28;;;;;;;4.80;4.40;;;;;;;14.99;71.77;95909.22;5051883;28;20465;-68
2023/05/02 08:23:57;;;;;;;5.82;3.60;;;;;;;14.85;72.33;95912.53;5049986;28;20090;-68
2023/05/02 08:26:23;;;;;;;3.85;3.58;;;;;;;15.53;70.43;95915.03;5049169;28;20511;-67
2023/05/02 08:28:51;;;;;;;8.40;4.05;;;;;;;15.33;67.24;95904.75;5051609;28;20409;-68
2023/05/02 08:31:17;;;;;;;4.35;4.00;;;;;;;14.36;69.62;95924.63;5044655;28;20031;-68
2023/05/02 08:33:43;;;;;;;6.28;4.05;;;;;;;13.40;72.70;95918.44;5051051;28;20029;-67
2023/05/02 08:36:15;;;;;;;4.80;4.43;;;;;;;13.01;75.98;95909.88;5050883;28;20029;-68
2023/05/02 08:38:42;;;;;;;6.55;4.05;;;;;;;12.82;78.11;95917.94;5048943;28;20123;-68
2023/05/02 08:41:16;;;;;;;3.90;3.60;;;;;;;13.24;77.86;95921.81;5049745;28;20052;-68
2023/05/02 08:43:42;;;;;;;4.13;3.83;;;;;;;14.30;75.90;95922.63;5049617;28;20025;-68
2023/05/02 08:46:10;;;;;;;3.88;3.63;;;;;;;14.25;73.54;95924.91;5054656;28;20047;-68
2023/05/02 08:48:37;;;;;;;5.80;4.78;;;;;;;13.73;74.01;95922.16;5051815;28;20032;-68
2023/05/02 08:51:03;;;;;;;4.68;4.05;;;;;;;13.54;75.64;95928.50;5047912;28;20051;-68
2023/05/02 08:53:31;;;;;;;4.50;4.20;;;;;;;13.59;75.76;95925.38;5042411;28;20054;-68
2023/05/02 08:55:58;;;;;;;5.35;4.88;;;;;;;13.86;74.89;95934.97;5048774;28;20036;-68
2023/05/02 08:58:24;;;;;;;4.55;4.15;;;;;;;13.88;73.04;95937.47;5046185;28;20489;-68
2023/05/02 09:00:51;;;;;;;3.88;3.58;;;;;;;13.71;74.88;95940.03;5048427;28;20082;-68
2023/05/02 09:03:32;;;;;;;3.95;3.65;;;;;;;14.03;75.16;95943.84;5048617;28;20064;-67
2023/05/02 09:06:31;;;;;;;3.38;3.17;;;;;;;13.62;75.46;95951.53;5051171;28;20029;-68
2023/05/02 09:08:59;;;;;;;4.57;4.28;;;;;;;13.21;76.48;95946.72;5050423;28;20041;-68
2023/05/02 09:11:25;;;;;;;3.50;3.25;;;;;;;13.19;76.75;95946.03;5067334;28;20024;-68
2023/05/02 09:13:51;;;;;;;4.43;3.20;;;;;;;13.20;77.54;95949.53;5051183;28;20021;-68
2023/05/02 09:16:24;;;;;;;3.97;3.22;;;;;;;13.52;77.86;95956.09;5047177;28;20037;-68
2023/05/02 09:18:56;;;;;;;3.97;3.60;;;;;;;13.45;77.74;95956.72;5051922;28;20071;-68
2023/05/02 09:21:25;;;;;;;5.95;5.45;;;;;;;13.33;77.20;95955.25;5043516;28;20032;-68
2023/05/02 09:23:51;;;;;;;4.80;4.40;;;;;;;14.49;75.79;95949.84;5050997;28;20383;-68
2023/05/02 09:26:31;;;;;;;3.92;3.55;;;;;;;15.58;70.48;95942.72;5051517;28;20789;-68
2023/05/02 09:28:58;;;;;;;3.35;3.05;;;;;;;15.98;68.39;95957.97;5051605;28;20048;-68
2023/05/02 09:31:29;;;;;;;3.92;3.20;;;;;;;16.78;64.92;95950.03;5051149;28;20131;-68
2023/05/02 09:33:55;;;;;;;2.90;2.70;;;;;;;17.80;62.14;95948.97;5054400;28;20505;-69
2023/05/02 09:36:21;;;;;;;4.88;2.90;;;;;;;18.18;58.00;95948.13;5049962;28;20448;-68
2023/05/02 09:38:49;;;;;;;4.60;2.85;;;;;;;17.33;58.25;95950.84;5046853;28;20045;-68
2023/05/02 09:41:16;;;;;;;3.15;2.95;;;;;;;16.92;60.01;95936.00;5049559;28;20024;-69
2023/05/02 09:43:42;;;;;;;4.40;3.10;;;;;;;17.76;59.87;95939.69;5050072;28;20021;-68
2023/05/02 09:46:09;;;;;;;3.03;2.70;;;;;;;18.02;56.90;95926.00;5049856;28;20053;-69
2023/05/02 09:48:51;;;;;;;3.85;2.42;;;;;;;18.50;53.66;95932.78;5048052;28;20083;-69
2023/05/02 09:51:17;;;;;;;2.60;2.38;;;;;;;19.49;53.19;95922.53;5047818;28;20049;-68
2023/05/02 09:53:44;;;;;;;2.60;2.50;;;;;;;19.91;51.84;95928.00;5046404;28;20504;-69
2023/05/02 09:56:09;;;;;;;4.20;3.80;;;;;;;19.14;50.69;95925.94;5050926;28;20033;-68
2023/05/02 09:58:35;;;;;;;4.90;4.13;;;;;;;19.15;53.99;95919.56;5051023;28;20163;-69
2023/05/02 10:01:00;;;;;;;3.90;3.45;;;;;;;19.22;54.57;95918.78;5048467;28;20021;-69
2023/05/02 10:03:27;;;;;;;2.78;2.58;;;;;;;19.23;54.48;95912.44;5052066;28;20028;-68
2023/05/02 10:05:53;;;;;;;3.08;2.75;;;;;;;18.85;55.93;95921.47;5053481;28;20090;-68
2023/05/02 10:08:21;;;;;;;3.05;2.85;;;;;;;18.02;58.18;95914.50;5049257;28;20087;-69
2023/05/02 10:10:51;;;;;;;5.18;2.92;;;;;;;17.65;58.60;95914.34;5055460;28;20043;-68
2023/05/02 10:13:19;;;;;;;3.22;2.50;;;;;;;17.31;61.48;95915.63;5053696;28;20024;-68
2023/05/02 10:15:49;;;;;;;3.90;3.45;;;;;;;17.14;56.54;95921.09;5052768;28;20038;-68
2023/05/02 10:18:20;;;;;;;3.40;3.10;;;;;;;17.42;58.33;95911.72;5051467;28;20017;-68
2023/05/02 10:20:57;;;;;;;4.30;3.90;;;;;;;18.31;55.20;95916.34;5056077;28;20013;-68
2023/05/02 10:23:29;;;;;;;3.33;3.10;;;;;;;18.54;54.67;95915.38;5051388;28;20025;-68
2023/05/02 10:25:57;;;;;;;3.85;3.35;;;;;;;19.02;54.37;95916.75;5069179;28;20035;-68
2023/05/02 10:28:23;;;;;;;3.10;2.90;;;;;;;19.22;55.29;95922.28;5055204;28;20063;-69
2023/05/02 10:30:49;;;;;;;3.13;2.88;;;;;;;19.59;53.26;95914.19;5055606;28;20070;-68
2023/05/02 10:33:17;;;;;;;5.18;2.70;;;;;;;20.08;51.92;95915.16;5053105;28;20505;-69
2023/05/02 10:35:47;;;;;;;2.67;2.47;;;;;;;20.44;50.21;95919.47;5049162;28;20033;-69
2023/05/02 10:38:19;;;;;;;5.70;5.13;;;;;;;19.87;50.11;95914.19;5050833;28;20045;-69
2023/05/02 10:40:55;;;;;;;3.40;3.10;;;;;;;19.96;48.46;95908.72;5055015;28;20060;-69
2023/05/02 10:43:23;;;;;;;7.13;6.20;;;;;;;19.75;49.10;95911.22;5051923;28;20013;-68
2023/05/02 10:45:49;;;;;;;2.47;2.38;;;;;;;20.50;49.12;95909.84;5050343;28;20099;-68
2023/05/02 10:48:21;;;;;;;2.92;2.70;;;;;;;21.34;48.18;95904.31;5051430;28;20021;-69
2023/05/02 10:50:50;;;;;;;2.53;2.42;;;;;;;20.94;46.10;95914.94;5050768;28;20509;-68
2023/05/02 10:53:35;;;;;;;2.60;2.40;;;;;;;19.99;48.85;95919.03;5052548;28;20440;-68
2023/05/02 10:56:06;;;;;;;3.10;2.90;;;;;;;20.29;49.92;95900.91;5048834;28;20021;-68
2023/05/02 10:58:32;;;;;;;2.53;2.30;;;;;;;20.15;45.96;95913.38;5049187;28;20091;-68
2023/05/02 11:01:36;;;;;;;3.30;3.00;;;;;;;21.32;48.90;95904.50;5056113;28;20021;-68
2023/05/02 11:04:08;;;;;;;2.88;2.67;;;;;;;22.06;45.67;95910.91;5052923;28;20035;-68
2023/05/02 11:06:53;;;;;;;3.38;2.50;;;;;;;22.08;43.74;95912.31;5047303;28;20035;-68
2023/05/02 11:09:21;;;;;;;2.67;2.47;;;;;;;22.22;45.28;95912.31;5055233;28;20029;-69
2023/05/02 11:11:53;;;;;;;2.35;2.25;;;;;;;22.13;43.84;95909.00;5049508;28;20481;-69
2023/05/02 11:14:25;;;;;;;2.38;2.20;;;;;;;21.80;44.44;95905.34;5050956;28;20028;-69
2023/05/02 11:16:56;;;;;;;2.50;2.20;;;;;;;21.44;44.05;95904.72;5052354;28;20079;-69
2023/05/02 11:19:22;;;;;;;2.40;2.20;;;;;;;22.05;43.97;95904.69;5054253;28;20021;-69
2023/05/02 11:21:48;;;;;;;2.20;2.00;;;;;;;22.77;42.63;95911.91;5051103;28;20017;-68
2023/05/02 11:24:41;;;;;;;2.40;2.20;;;;;;;23.51;40.02;95902.59;5051565;28;20017;-68
2023/05/02 11:27:28;;;;;;;3.83;2.63;;;;;;;21.93;41.18;95901.84;5051554;28;20453;-68
2023/05/02 11:29:54;;;;;;;3.60;2.90;;;;;;;21.77;41.05;95891.53;5050112;28;20060;-69
2023/05/02 11:32:21;;;;;;;2.35;2.15;;;;;;;21.35;40.69;95889.91;5050712;28;20063;-68
2023/05/02 11:34:51;;;;;;;2.10;2.00;;;;;;;21.63;42.96;95877.31;5054112;28;20033;-69
2023/05/02 11:37:17;;;;;;;2.25;2.08;;;;;;;21.41;41.33;95889.06;5052928;28;20532;-68
2023/05/02 11:39:43;;;;;;;2.42;2.20;;;;;;;20.99;42.97;95883.06;5051920;28;20498;-67